Time;durP1;ratioP1;P1;durP2;ratioP2;P2;SDS_P1;SDS_P2;PMS_P1;PMS_P2;Temp;Humidity;BMP_temperature;BMP_pressure;BME280_temperature;BME280_humidity;BME280_pressure;Samples;Min_cycle;Max_cycle;Signal;HPM_P1;HPM_P2
2023/10/16 00:02:06;;;;;;;10.10;3.88;;;2.10;99.90;;;;;;5090245;28;20070;-74
2023/10/16 00:04:32;;;;;;;12.15;4.45;;;2.10;99.90;;;;;;5091450;28;20396;-74
2023/10/16 00:07:00;;;;;;;9.23;4.43;;;2.20;99.90;;;;;;5089528;28;20020;-74
2023/10/16 00:09:28;;;;;;;7.43;4.00;;;2.20;99.90;;;;;;5090713;28;20046;-74
2023/10/16 00:11:54;;;;;;;10.30;4.53;;;2.10;99.90;;;;;;5089013;28;20800;-74
2023/10/16 00:14:23;;;;;;;7.78;4.32;;;2.00;99.90;;;;;;5090940;28;20086;-74
2023/10/16 00:16:50;;;;;;;11.45;4.60;;;2.10;99.90;;;;;;5089763;28;20488;-73
2023/10/16 00:19:16;;;;;;;9.40;4.20;;;2.00;99.90;;;;;;5090358;28;20031;-74
2023/10/16 00:21:45;;;;;;;9.38;4.68;;;1.90;99.90;;;;;;5089891;28;20031;-74
2023/10/16 00:24:15;;;;;;;9.75;4.30;;;1.90;99.90;;;;;;5090577;28;20517;-74
2023/10/16 00:26:48;;;;;;;9.32;4.03;;;1.90;99.90;;;;;;5091775;28;20028;-74
2023/10/16 00:29:24;;;;;;;11.07;4.93;;;2.00;99.90;;;;;;5090218;28;20135;-74
2023/10/16 00:31:58;;;;;;;9.30;4.30;;;2.10;99.90;;;;;;5089605;28;20028;-74
2023/10/16 00:34:24;;;;;;;9.60;4.25;;;2.10;99.90;;;;;;5090436;28;20132;-74
2023/10/16 00:36:54;;;;;;;10.23;4.32;;;2.00;99.90;;;;;;5089481;28;20020;-74
2023/10/16 00:39:20;;;;;;;60.50;5.38;;;2.00;99.90;;;;;;5089803;28;20105;-73
2023/10/16 00:41:46;;;;;;;26.27;4.88;;;1.90;99.90;;;;;;5088962;28;20038;-74
2023/10/16 00:44:17;;;;;;;11.48;4.85;;;1.80;99.90;;;;;;5090806;28;20559;-73
2023/10/16 00:46:48;;;;;;;10.35;4.25;;;1.70;99.90;;;;;;5088808;28;20117;-74
2023/10/16 00:49:14;;;;;;;7.03;4.10;;;1.60;99.90;;;;;;5090344;28;20226;-74
2023/10/16 00:51:41;;;;;;;8.73;4.32;;;1.50;99.90;;;;;;5089008;28;20038;-72
2023/10/16 00:54:18;;;;;;;8.05;4.03;;;1.50;99.90;;;;;;5089559;28;20431;-72
2023/10/16 00:56:51;;;;;;;10.32;4.30;;;1.60;99.90;;;;;;5087576;28;20070;-73
2023/10/16 00:59:17;;;;;;;9.05;4.03;;;1.60;99.90;;;;;;5088343;28;20043;-74
2023/10/16 01:01:44;;;;;;;8.23;4.03;;;1.70;99.90;;;;;;5089033;28;20028;-73
2023/10/16 01:04:10;;;;;;;10.00;3.53;;;1.70;99.90;;;;;;5089334;28;20035;-74
2023/10/16 01:06:36;;;;;;;11.38;5.35;;;1.60;99.90;;;;;;5089419;28;20030;-73
2023/10/16 01:09:09;;;;;;;12.95;3.95;;;1.60;99.90;;;;;;5088922;28;20029;-73
2023/10/16 01:11:38;;;;;;;9.15;4.28;;;1.50;99.90;;;;;;5089200;28;20099;-72
2023/10/16 01:14:07;;;;;;;9.00;3.97;;;1.50;99.90;;;;;;5088912;28;20153;-73
2023/10/16 01:16:33;;;;;;;10.30;4.18;;;1.50;99.90;;;;;;5089220;28;20505;-73
2023/10/16 01:19:06;;;;;;;9.48;4.00;;;1.40;99.90;;;;;;5089012;28;20107;-72
2023/10/16 01:21:32;;;;;;;9.23;4.45;;;1.30;99.90;;;;;;5088867;28;20527;-74
2023/10/16 01:24:12;;;;;;;8.13;4.03;;;1.30;99.90;;;;;;5087971;28;20789;-74
2023/10/16 01:26:38;;;;;;;7.18;3.55;;;1.30;99.90;;;;;;5088588;28;20028;-73
2023/10/16 01:29:07;;;;;;;8.10;4.07;;;1.40;99.90;;;;;;5087601;28;20027;-73
2023/10/16 01:31:33;;;;;;;7.10;3.95;;;1.40;99.90;;;;;;5089129;28;20028;-74
2023/10/16 01:33:59;;;;;;;7.97;3.60;;;1.50;99.90;;;;;;5088331;28;20024;-73
2023/10/16 01:36:25;;;;;;;8.63;4.30;;;1.60;99.90;;;;;;5088793;28;20034;-73
2023/10/16 01:38:51;;;;;;;5.88;3.30;;;1.40;99.90;;;;;;5088347;28;20024;-73
2023/10/16 01:41:18;;;;;;;10.13;3.85;;;1.30;99.90;;;;;;5088885;28;20028;-73
2023/10/16 01:43:44;;;;;;;8.35;3.90;;;1.30;99.90;;;;;;5088389;28;20028;-71
2023/10/16 01:46:14;;;;;;;6.47;3.33;;;1.40;99.90;;;;;;5088556;28;20111;-73
2023/10/16 01:48:42;;;;;;;21.10;4.28;;;1.50;99.90;;;;;;5088754;28;20063;-73
2023/10/16 01:51:19;;;;;;;12.40;3.92;;;1.50;99.90;;;;;;5088927;28;20020;-73
2023/10/16 01:53:49;;;;;;;8.88;3.90;;;1.40;99.90;;;;;;5088159;28;20168;-72
2023/10/16 01:56:17;;;;;;;8.77;3.65;;;1.20;99.90;;;;;;5088075;28;20016;-73
2023/10/16 01:58:45;;;;;;;7.00;3.75;;;1.20;99.90;;;;;;5088295;28;20491;-69
2023/10/16 02:01:15;;;;;;;7.85;3.58;;;1.10;99.90;;;;;;5088524;28;20044;-73
2023/10/16 02:03:43;;;;;;;7.65;3.65;;;1.20;99.90;;;;;;5088791;28;20030;-71
2023/10/16 02:06:11;;;;;;;6.82;3.67;;;1.20;99.90;;;;;;5088527;28;20491;-73
2023/10/16 02:08:38;;;;;;;7.35;4.05;;;1.20;99.90;;;;;;5084986;28;20062;-73
2023/10/16 02:11:04;;;;;;;9.23;4.13;;;1.10;99.90;;;;;;5087120;28;20102;-73
2023/10/16 02:13:35;;;;;;;11.73;3.88;;;1.20;99.90;;;;;;5088172;28;20456;-73
2023/10/16 02:16:02;;;;;;;;;;;1.20;99.90;;;;;;5088705;28;20020;-74
2023/10/16 02:18:36;;;;;;;8.75;3.67;;;1.20;99.90;;;;;;5088270;28;19916;-74
2023/10/16 02:21:02;;;;;;;8.85;3.75;;;1.10;99.90;;;;;;5087431;28;20334;-70
2023/10/16 02:23:30;;;;;;;7.32;3.70;;;1.00;99.90;;;;;;5088518;28;20052;-70
2023/10/16 02:25:59;;;;;;;7.88;3.70;;;1.00;99.90;;;;;;5082602;28;20027;-70
2023/10/16 02:28:25;;;;;;;9.52;4.00;;;0.90;99.90;;;;;;5081819;28;20039;-70
2023/10/16 02:30:51;;;;;;;7.20;3.10;;;0.90;99.90;;;;;;5085467;28;20020;-71
2023/10/16 02:33:26;;;;;;;8.32;3.75;;;0.90;99.90;;;;;;5090224;28;20016;-71
2023/10/16 02:35:53;;;;;;;6.65;3.70;;;0.80;99.90;;;;;;5090053;28;20385;-70
2023/10/16 02:38:29;;;;;;;7.32;3.70;;;0.80;99.90;;;;;;5091263;28;20042;-70
2023/10/16 02:41:00;;;;;;;6.57;3.10;;;0.80;99.90;;;;;;5097767;28;20111;-71
2023/10/16 02:43:27;;;;;;;6.90;3.30;;;0.80;99.90;;;;;;5092549;28;20034;-70
2023/10/16 02:45:53;;;;;;;9.40;3.65;;;0.90;99.90;;;;;;5091240;28;20103;-73
2023/10/16 02:48:20;;;;;;;11.95;3.63;;;0.90;99.90;;;;;;5091989;28;20114;-73
2023/10/16 02:50:56;;;;;;;135.98;5.60;;;0.90;99.90;;;;;;5091993;28;20024;-73
2023/10/16 02:53:25;;;;;;;7.88;3.80;;;1.00;99.90;;;;;;5091759;28;20032;-73
2023/10/16 02:56:05;;;;;;;8.38;3.80;;;0.90;99.90;;;;;;5091409;28;20110;-73
2023/10/16 02:58:32;;;;;;;23.27;3.95;;;0.80;99.90;;;;;;5092511;28;20036;-72
2023/10/16 03:01:06;;;;;;;7.43;3.63;;;0.80;99.90;;;;;;5089559;28;20101;-72
2023/10/16 03:03:32;;;;;;;6.88;3.15;;;0.70;99.90;;;;;;5088772;28;20039;-73
2023/10/16 03:05:58;;;;;;;9.38;3.50;;;0.70;99.90;;;;;;5091019;28;20028;-72
2023/10/16 03:08:30;;;;;;;6.28;3.17;;;0.70;99.90;;;;;;5091952;28;20035;-72
2023/10/16 03:10:57;;;;;;;8.32;3.90;;;0.60;99.90;;;;;;5091347;28;20032;-73
2023/10/16 03:13:24;;;;;;;9.45;3.42;;;0.60;99.90;;;;;;5092388;28;20039;-73
2023/10/16 03:15:58;;;;;;;8.85;3.95;;;0.50;99.90;;;;;;5090937;28;20024;-72
2023/10/16 03:18:24;;;;;;;14.75;4.40;;;0.50;99.90;;;;;;5090981;28;20083;-73
2023/10/16 03:21:12;;;;;;;8.02;3.65;;;0.50;99.90;;;;;;5090633;28;20032;-73
2023/10/16 03:23:45;;;;;;;19.50;4.03;;;0.50;99.90;;;;;;5092034;28;20047;-73
2023/10/16 03:26:22;;;;;;;7.57;3.60;;;0.60;99.90;;;;;;5090975;28;20039;-72
2023/10/16 03:29:00;;;;;;;9.63;4.03;;;0.60;99.90;;;;;;5089623;28;20035;-72
2023/10/16 03:31:27;;;;;;;7.15;3.53;;;0.60;99.90;;;;;;5091445;28;20024;-73
2023/10/16 03:33:56;;;;;;;50.20;4.45;;;0.70;99.90;;;;;;5090169;28;20485;-73
2023/10/16 03:36:22;;;;;;;8.35;3.72;;;0.70;99.90;;;;;;5091298;28;20028;-72
2023/10/16 03:38:50;;;;;;;29.75;3.75;;;0.70;99.90;;;;;;5091140;28;20089;-73
2023/10/16 03:41:28;;;;;;;15.68;3.42;;;0.60;99.90;;;;;;5090987;28;20698;-73
2023/10/16 03:43:58;;;;;;;8.55;3.67;;;0.50;99.90;;;;;;5079325;28;20032;-73
2023/10/16 03:46:24;;;;;;;;;;;0.50;99.90;;;;;;5090617;28;20484;-73
2023/10/16 03:48:50;;;;;;;7.72;3.85;;;0.50;99.90;;;;;;5090660;28;20054;-72
2023/10/16 03:51:16;;;;;;;12.93;3.50;;;0.50;99.90;;;;;;5090928;28;20451;-72
2023/10/16 03:53:44;;;;;;;5.70;3.40;;;0.50;99.90;;;;;;5091289;28;20039;-73
2023/10/16 03:56:11;;;;;;;7.53;3.67;;;0.50;99.90;;;;;;5089681;28;20647;-72
2023/10/16 03:58:46;;;;;;;10.13;3.47;;;0.40;99.90;;;;;;5091126;28;20037;-73
2023/10/16 04:01:12;;;;;;;7.18;3.53;;;0.40;99.90;;;;;;5089098;28;20118;-73
2023/10/16 04:03:47;;;;;;;27.23;4.22;;;0.40;99.90;;;;;;5089407;28;20056;-72
2023/10/16 04:06:18;;;;;;;14.88;3.80;;;0.40;99.90;;;;;;5087207;28;20023;-72
2023/10/16 04:08:46;;;;;;;109.63;5.13;;;0.40;99.90;;;;;;5089932;28;20032;-72
2023/10/16 04:11:12;;;;;;;18.23;4.00;;;0.50;99.90;;;;;;5087049;28;20556;-72
2023/10/16 04:13:45;;;;;;;67.10;4.07;;;0.50;99.90;;;;;;5088412;28;20488;-72
2023/10/16 04:16:13;;;;;;;81.72;4.93;;;0.50;99.90;;;;;;5078920;28;20055;-72
2023/10/16 04:18:40;;;;;;;9.70;3.92;;;0.40;99.90;;;;;;5089188;28;20075;-73
2023/10/16 04:26:33;;;;;;;27.17;8.50;;;0.20;99.90;;;;;;5087468;28;20109;-72
2023/10/16 04:31:44;;;;;;;11.30;5.50;;;0.40;99.90;;;;;;5093039;28;20053;-73
2023/10/16 04:47:56;;;;;;;27.20;5.73;;;0.30;99.90;;;;;;5090247;28;20044;-73
2023/10/16 04:53:13;;;;;;;8.93;4.68;;;0.40;99.90;;;;;;5089812;28;20044;-72
2023/10/16 05:22:09;;;;;;;13.10;5.22;;;-0.10;99.90;;;;;;5087788;28;20046;-72
2023/10/16 06:14:11;;;;;;;8.68;4.47;;;0.20;99.90;;;;;;5088097;28;20058;-72
2023/10/16 06:16:41;;;;;;;49.92;4.90;;;0.20;99.90;;;;;;5088201;28;20040;-72
2023/10/16 06:19:17;;;;;;;210.50;8.23;;;0.30;99.90;;;;;;5086944;28;20329;-72
2023/10/16 06:21:48;;;;;;;99.20;6.60;;;0.20;99.90;;;;;;5088619;28;20065;-73
2023/10/16 06:24:25;;;;;;;15.30;4.60;;;0.10;99.90;;;;;;5088318;28;20036;-73
2023/10/16 06:27:10;;;;;;;38.53;5.05;;;0.30;99.90;;;;;;5088585;28;20035;-73
2023/10/16 06:29:49;;;;;;;84.88;6.22;;;0.30;99.90;;;;;;5088360;28;20042;-73
2023/10/16 06:32:18;;;;;;;47.05;4.93;;;0.40;99.90;;;;;;5090495;28;20028;-72
2023/10/16 06:35:07;;;;;;;10.95;5.50;;;0.50;99.90;;;;;;5088578;28;20039;-72
2023/10/16 06:37:33;;;;;;;16.13;7.85;;;0.50;99.90;;;;;;5088338;28;20032;-73
2023/10/16 06:40:01;;;;;;;26.02;13.98;;;0.50;99.90;;;;;;5086785;28;20032;-73
2023/10/16 06:42:29;;;;;;;15.82;7.00;;;0.50;99.90;;;;;;5088423;28;20039;-72
2023/10/16 06:44:56;;;;;;;12.80;6.85;;;0.60;99.90;;;;;;5088113;28;20426;-73
2023/10/16 06:47:35;;;;;;;12.95;7.20;;;0.60;99.90;;;;;;5087695;28;20713;-72
2023/10/16 06:52:53;;;;;;;17.05;8.85;;;0.60;99.90;;;;;;5088321;28;20468;-72
2023/10/16 06:55:23;;;;;;;13.07;6.20;;;0.70;99.90;;;;;;5086913;28;20032;-73
2023/10/16 06:57:49;;;;;;;9.47;4.60;;;0.90;99.90;;;;;;5087376;28;20028;-73
2023/10/16 07:00:33;;;;;;;13.45;6.53;;;0.90;99.90;;;;;;5087320;28;20081;-73
2023/10/16 07:03:09;;;;;;;15.75;8.30;;;1.10;99.90;;;;;;5087851;28;20035;-72
2023/10/16 07:05:44;;;;;;;12.18;5.10;;;1.20;99.90;;;;;;5086955;28;20626;-72
2023/10/16 07:08:17;;;;;;;14.95;5.43;;;1.30;99.90;;;;;;5075878;28;20028;-74
2023/10/16 07:10:51;;;;;;;13.73;5.00;;;1.30;99.90;;;;;;5087696;28;20035;-73
2023/10/16 07:13:27;;;;;;;10.80;5.05;;;1.30;99.90;;;;;;5086773;28;20447;-73
2023/10/16 07:15:56;;;;;;;9.07;4.65;;;1.30;99.90;;;;;;5088218;28;20441;-72
2023/10/16 07:18:24;;;;;;;10.32;5.40;;;1.40;99.90;;;;;;5086565;28;20083;-73
2023/10/16 07:23:36;;;;;;;14.50;6.23;;;1.50;99.90;;;;;;5091873;28;20028;-73
2023/10/16 07:26:03;;;;;;;12.60;5.85;;;1.70;99.90;;;;;;5091410;28;20085;-73
2023/10/16 07:28:31;;;;;;;20.42;6.40;;;1.80;99.90;;;;;;5091066;28;20048;-73
2023/10/16 07:30:57;;;;;;;10.55;5.32;;;1.90;99.90;;;;;;5089961;28;20049;-73
2023/10/16 07:33:23;;;;;;;10.48;5.55;;;2.00;99.90;;;;;;5089404;28;20035;-73
2023/10/16 07:35:54;;;;;;;13.02;5.22;;;2.10;99.90;;;;;;5091331;28;20032;-74
2023/10/16 07:38:25;;;;;;;30.55;13.05;;;2.30;99.90;;;;;;5090619;28;20040;-73
2023/10/16 07:40:52;;;;;;;39.20;19.48;;;2.40;99.90;;;;;;5091283;28;20516;-73
2023/10/16 07:43:28;;;;;;;26.23;10.40;;;2.60;99.90;;;;;;5090485;28;20028;-73
2023/10/16 07:48:37;;;;;;;16.27;7.55;;;3.00;99.90;;;;;;5090582;28;20040;-74
2023/10/16 07:51:07;;;;;;;23.80;14.05;;;3.20;99.90;;;;;;5091027;28;20024;-74
2023/10/16 07:53:36;;;;;;;30.03;17.03;;;3.30;99.90;;;;;;5090967;28;20395;-76
2023/10/16 07:56:09;;;;;;;16.67;8.13;;;3.40;99.90;;;;;;5091070;28;20024;-74
2023/10/16 07:58:47;;;;;;;34.50;13.50;;;3.60;99.90;;;;;;5090868;28;20421;-74
2023/10/16 08:03:41;;;;;;;21.85;9.55;;;3.90;99.90;;;;;;5090731;28;20028;-74
2023/10/16 08:06:12;;;;;;;18.45;8.60;;;4.10;99.90;;;;;;5090380;28;20024;-73
2023/10/16 08:08:42;;;;;;;20.58;9.52;;;4.30;99.90;;;;;;5090619;28;20075;-75
2023/10/16 08:11:12;;;;;;;25.17;12.23;;;4.50;99.90;;;;;;5090315;28;20089;-73
2023/10/16 08:13:49;;;;;;;25.88;10.55;;;4.70;99.90;;;;;;5091056;28;20035;-75
2023/10/16 08:16:21;;;;;;;19.95;9.32;;;4.90;99.90;;;;;;5088577;28;20432;-74
2023/10/16 08:18:51;;;;;;;17.55;8.20;;;5.10;99.90;;;;;;5089667;28;20055;-74
2023/10/16 08:21:24;;;;;;;18.27;8.55;;;5.20;99.90;;;;;;5089997;28;20173;-75
2023/10/16 08:23:53;;;;;;;23.20;8.23;;;5.40;99.90;;;;;;5090766;28;20032;-76
2023/10/16 08:26:28;;;;;;;18.23;8.23;;;5.40;99.90;;;;;;5089918;28;20028;-74
2023/10/16 08:29:11;;;;;;;18.83;8.05;;;5.60;99.90;;;;;;5090448;28;20039;-75
2023/10/16 08:31:41;;;;;;;15.90;7.85;;;5.80;99.90;;;;;;5089912;28;20429;-75
2023/10/16 08:34:08;;;;;;;20.73;8.07;;;6.00;99.90;;;;;;5090688;28;20027;-74
2023/10/16 08:36:33;;;;;;;18.92;7.57;;;6.10;99.90;;;;;;5090211;28;20024;-74
2023/10/16 08:39:08;;;;;;;18.05;7.25;;;6.20;99.90;;;;;;5090160;28;20040;-74
2023/10/16 08:42:36;;;;;;;17.75;7.85;;;6.30;99.90;;;;;;5090508;28;20024;-74
2023/10/16 08:44:30;;;;;;;17.92;7.97;;;6.50;99.90;;;;;;5080296;28;20115;-76
2023/10/16 08:49:25;;;;;;;15.95;7.63;;;6.80;99.90;;;;;;5089044;28;20122;-73
2023/10/16 08:51:54;;;;;;;17.45;6.97;;;6.90;99.90;;;;;;5089808;28;20032;-74
2023/10/16 08:55:00;;;;;;;13.45;5.03;;;7.00;99.90;;;;;;5122171;27;20036;-73
2023/10/16 08:57:22;;;;;;;16.33;6.97;;;7.00;99.90;;;;;;5087899;28;20036;-75
2023/10/16 08:59:52;;;;;;;19.35;7.78;;;7.10;99.90;;;;;;5122490;27;20482;-75
2023/10/16 09:02:24;;;;;;;18.90;7.80;;;7.30;99.90;;;;;;5089313;28;20035;-75
2023/10/16 09:04:54;;;;;;;17.95;7.75;;;7.50;99.90;;;;;;5089639;28;20063;-74
2023/10/16 09:07:20;;;;;;;11.73;5.45;;;7.60;99.90;;;;;;5087323;28;20567;-75
2023/10/16 09:09:49;;;;;;;12.57;6.85;;;7.70;99.90;;;;;;5089887;28;20117;-74
2023/10/16 09:12:24;;;;;;;16.35;7.43;;;7.80;99.90;;;;;;5089027;28;20028;-74
2023/10/16 09:14:51;;;;;;;16.13;7.30;;;7.80;99.90;;;;;;5089819;28;20020;-76
2023/10/16 09:17:21;;;;;;;13.65;6.88;;;7.80;99.90;;;;;;5087675;28;20105;-74
2023/10/16 09:19:48;;;;;;;15.15;6.68;;;8.00;99.90;;;;;;5089858;28;20384;-74
2023/10/16 09:22:15;;;;;;;13.85;5.97;;;8.00;99.90;;;;;;5088471;28;20118;-74
2023/10/16 09:24:45;;;;;;;14.73;6.60;;;8.10;99.90;;;;;;5089647;28;20027;-74
2023/10/16 09:27:22;;;;;;;13.57;6.72;;;8.30;99.90;;;;;;5088273;28;20085;-75
2023/10/16 09:29:53;;;;;;;13.15;6.05;;;8.20;99.90;;;;;;5069167;28;20081;-75
2023/10/16 09:32:40;;;;;;;12.85;5.53;;;8.50;99.90;;;;;;5068457;28;20035;-75
2023/10/16 09:35:11;;;;;;;11.32;5.95;;;8.60;99.90;;;;;;5083609;28;20035;-75
2023/10/16 09:37:37;;;;;;;17.65;6.88;;;8.70;99.90;;;;;;5087553;28;20095;-76
2023/10/16 09:40:19;;;;;;;11.73;6.32;;;8.80;99.90;;;;;;5089094;28;20506;-75
2023/10/16 09:42:55;;;;;;;12.07;5.60;;;8.80;99.90;;;;;;5089120;28;20036;-74
2023/10/16 09:45:24;;;;;;;14.60;7.18;;;8.60;99.90;;;;;;5088036;28;20036;-74
2023/10/16 09:47:52;;;;;;;15.43;6.95;;;8.70;99.90;;;;;;5087349;28;20472;-75
2023/10/16 09:50:21;;;;;;;13.52;6.93;;;9.00;99.90;;;;;;5088186;28;20058;-75
2023/10/16 09:52:48;;;;;;;16.52;7.00;;;8.90;99.90;;;;;;5087461;28;20123;-74
2023/10/16 09:55:14;;;;;;;12.98;7.35;;;9.00;99.90;;;;;;5087910;28;20160;-75
2023/10/16 09:57:54;;;;;;;14.05;6.40;;;9.20;99.90;;;;;;5088785;28;20032;-75
2023/10/16 10:00:33;;;;;;;14.48;6.63;;;9.50;99.90;;;;;;5088017;28;20097;-75
2023/10/16 10:03:05;;;;;;;11.90;5.90;;;9.30;99.90;;;;;;5089082;28;20032;-76
2023/10/16 10:05:48;;;;;;;19.88;6.20;;;9.40;99.90;;;;;;5088148;28;20093;-76
2023/10/16 10:12:04;;;;;;;13.98;6.43;;;9.80;99.90;;;;;;5065251;28;20040;-75
2023/10/16 10:14:46;;;;;;;11.52;6.28;;;9.90;99.90;;;;;;5081109;28;20105;-76
2023/10/16 10:17:25;;;;;;;11.90;5.88;;;9.70;99.90;;;;;;5087987;28;20462;-74
2023/10/16 10:19:55;;;;;;;13.07;6.63;;;9.80;99.90;;;;;;5088773;28;20384;-77
2023/10/16 10:22:28;;;;;;;11.35;5.70;;;9.70;99.90;;;;;;5087570;28;20024;-76
2023/10/16 10:25:22;;;;;;;12.55;5.90;;;9.60;99.90;;;;;;5088456;28;20089;-73
2023/10/16 10:27:49;;;;;;;12.60;5.65;;;9.70;99.90;;;;;;5088433;28;20487;-74
2023/10/16 10:30:25;;;;;;;14.23;5.47;;;9.80;99.90;;;;;;5087838;28;20749;-74
2023/10/16 10:32:55;;;;;;;11.95;5.35;;;9.90;99.90;;;;;;5088243;28;20028;-75
2023/10/16 10:35:30;;;;;;;11.02;5.20;;;10.10;99.90;;;;;;5087915;28;20028;-73
2023/10/16 10:38:29;;;;;;;11.30;4.80;;;10.20;99.90;;;;;;5088326;28;20482;-74
2023/10/16 10:41:04;;;;;;;11.50;4.93;;;10.50;99.90;;;;;;5090686;28;20035;-74
2023/10/16 10:43:49;;;;;;;8.30;4.40;;;10.70;99.90;;;;;;5087598;28;20028;-75
2023/10/16 10:46:26;;;;;;;10.27;4.60;;;10.80;99.90;;;;;;5067683;28;20075;-74
2023/10/16 10:48:56;;;;;;;9.10;4.32;;;11.10;99.90;;;;;;5068194;28;20393;-77
2023/10/16 10:51:22;;;;;;;8.63;4.32;;;11.40;99.90;;;;;;5067661;28;20059;-74
2023/10/16 10:53:55;;;;;;;9.73;4.93;;;11.30;99.90;;;;;;5068108;28;20082;-74
2023/10/16 10:56:21;;;;;;;10.10;4.47;;;11.30;99.90;;;;;;5072121;28;20028;-75
2023/10/16 10:58:47;;;;;;;6.97;3.83;;;11.50;99.90;;;;;;5071973;28;20037;-74
2023/10/16 11:01:16;;;;;;;9.45;3.63;;;11.80;99.90;;;;;;5104030;28;20036;-72
2023/10/16 11:03:46;;;;;;;4.63;2.70;;;12.20;99.90;;;;;;5087538;28;20761;-73
2023/10/16 11:06:19;;;;;;;8.80;3.97;;;12.60;99.90;;;;;;5092052;28;20143;-72
2023/10/16 11:08:50;;;;;;;6.68;2.90;;;12.50;99.90;;;;;;5092467;28;20040;-74
2023/10/16 11:11:16;;;;;;;5.88;3.10;;;12.50;99.90;;;;;;5090046;28;20016;-71
2023/10/16 11:13:49;;;;;;;6.00;2.95;;;12.20;99.90;;;;;;5092128;28;20043;-73
2023/10/16 11:16:15;;;;;;;5.80;3.42;;;12.40;99.90;;;;;;5093405;28;20069;-70
2023/10/16 11:18:56;;;;;;;3.78;2.38;;;12.60;99.90;;;;;;5091313;28;20102;-74
2023/10/16 11:21:25;;;;;;;3.80;2.40;;;12.60;99.90;;;;;;5090914;28;20028;-74
2023/10/16 11:23:55;;;;;;;4.78;2.55;;;12.70;99.90;;;;;;5091557;28;20059;-74
2023/10/16 11:26:26;;;;;;;7.50;3.25;;;12.80;99.90;;;;;;5090875;28;20043;-73
2023/10/16 11:28:54;;;;;;;6.20;3.25;;;12.60;99.90;;;;;;5091881;28;20487;-73
2023/10/16 11:31:21;;;;;;;5.80;3.00;;;12.20;99.90;;;;;;5090799;28;20036;-74
2023/10/16 11:34:07;;;;;;;4.35;2.72;;;12.10;99.90;;;;;;5091703;28;20040;-74
2023/10/16 11:36:36;;;;;;;5.65;2.60;;;12.40;99.90;;;;;;5091001;28;20456;-73
2023/10/16 11:39:03;;;;;;;4.93;2.50;;;12.60;99.90;;;;;;5091425;28;20082;-73
2023/10/16 11:41:30;;;;;;;3.13;2.20;;;12.70;99.90;;;;;;5090366;28;20032;-74
2023/10/16 11:43:56;;;;;;;3.55;2.10;;;12.90;99.90;;;;;;5091852;28;20046;-75
2023/10/16 11:46:39;;;;;;;7.53;2.72;;;13.00;99.90;;;;;;5090404;28;20036;-72
2023/10/16 11:51:52;;;;;;;4.93;2.53;;;12.20;99.90;;;;;;5091246;28;20460;-74
2023/10/16 11:54:20;;;;;;;7.28;3.05;;;12.10;99.90;;;;;;5090197;28;20035;-73
2023/10/16 11:56:51;;;;;;;7.28;2.97;;;12.30;99.90;;;;;;5086943;28;20099;-73
2023/10/16 11:59:19;;;;;;;4.78;2.88;;;12.60;99.90;;;;;;5090255;28;20044;-71
2023/10/16 12:01:45;;;;;;;5.10;3.05;;;12.90;99.90;;;;;;5070979;28;20043;-73
2023/10/16 12:04:16;;;;;;;4.38;2.95;;;12.90;98.90;;;;;;5087452;28;20032;-73
2023/10/16 12:06:44;;;;;;;5.82;2.97;;;12.50;99.70;;;;;;5089799;28;20074;-73
2023/10/16 12:09:13;;;;;;;5.35;3.22;;;12.90;99.90;;;;;;5090918;28;20059;-73
2023/10/16 12:11:42;;;;;;;5.28;3.13;;;13.10;99.70;;;;;;5090295;28;20020;-73
2023/10/16 12:14:14;;;;;;;4.45;2.88;;;13.00;99.00;;;;;;5090458;28;20464;-73
2023/10/16 12:16:41;;;;;;;4.60;2.90;;;13.30;99.90;;;;;;5089845;28;20098;-73
2023/10/16 12:19:09;;;;;;;4.85;2.80;;;13.60;99.20;;;;;;5090930;28;20535;-74
2023/10/16 12:21:35;;;;;;;5.05;2.95;;;13.40;98.20;;;;;;5090303;28;20069;-73
2023/10/16 12:24:01;;;;;;;5.80;2.70;;;13.60;98.10;;;;;;5089654;28;20034;-74
2023/10/16 12:26:27;;;;;;;5.05;2.60;;;13.70;98.60;;;;;;5090402;28;20514;-73
2023/10/16 12:28:53;;;;;;;9.27;4.97;;;13.60;96.80;;;;;;5089405;28;20028;-73
2023/10/16 12:31:19;;;;;;;7.85;4.80;;;13.60;97.70;;;;;;5090656;28;20465;-74
2023/10/16 12:33:46;;;;;;;9.30;5.40;;;13.50;98.50;;;;;;5090308;28;20055;-74
2023/10/16 12:36:11;;;;;;;7.65;3.28;;;13.20;96.90;;;;;;5091874;28;20036;-73
2023/10/16 12:38:37;;;;;;;7.20;3.22;;;13.20;97.80;;;;;;5110407;28;20091;-73
2023/10/16 12:41:05;;;;;;;4.68;2.63;;;13.70;98.50;;;;;;5110613;28;20102;-72
2023/10/16 12:43:31;;;;;;;6.90;3.38;;;13.90;97.10;;;;;;5099616;28;20439;-73
2023/10/16 12:45:57;;;;;;;6.93;3.30;;;14.10;96.30;;;;;;5090598;28;20068;-74
2023/10/16 12:48:29;;;;;;;7.25;2.80;;;14.10;96.70;;;;;;5089210;28;20373;-72
2023/10/16 12:50:59;;;;;;;4.80;2.83;;;14.00;95.30;;;;;;5090237;28;20472;-74
2023/10/16 12:53:27;;;;;;;17.90;6.38;;;13.30;95.20;;;;;;5088948;28;20063;-74
2023/10/16 12:55:55;;;;;;;8.25;3.92;;;13.30;97.00;;;;;;5089135;28;20028;-74
2023/10/16 12:58:22;;;;;;;4.38;2.40;;;13.70;96.50;;;;;;5089665;28;20123;-72
2023/10/16 13:00:50;;;;;;;6.82;3.15;;;13.90;96.10;;;;;;5090121;28;20085;-73
2023/10/16 13:03:20;;;;;;;5.00;2.97;;;14.10;96.50;;;;;;5090127;28;20106;-73
2023/10/16 13:05:49;;;;;;;;;;;13.70;95.20;;;;;;5090188;28;20040;-74
2023/10/16 13:08:22;;;;;;;6.50;2.85;;;13.40;96.90;;;;;;5088430;28;20450;-74
2023/10/16 13:10:52;;;;;;;3.85;2.60;;;13.60;96.50;;;;;;5089633;28;20020;-72
2023/10/16 13:13:24;;;;;;;3.55;2.10;;;13.70;95.40;;;;;;5089408;28;20032;-72
2023/10/16 13:15:51;;;;;;;4.78;2.70;;;13.70;95.70;;;;;;5089023;28;20032;-73
2023/10/16 13:18:27;;;;;;;4.47;2.70;;;13.30;95.90;;;;;;5088280;28;20048;-73
2023/10/16 13:21:15;;;;;;;6.50;3.10;;;13.30;95.50;;;;;;5089854;28;20060;-72
2023/10/16 13:23:40;;;;;;;5.30;2.60;;;13.70;96.50;;;;;;5087482;28;20031;-73
2023/10/16 13:26:09;;;;;;;10.30;4.00;;;14.00;95.80;;;;;;5089438;28;20036;-73
2023/10/16 13:28:42;;;;;;;4.78;2.75;;;14.10;95.40;;;;;;5088958;28;20435;-73
2023/10/16 13:31:09;;;;;;;4.35;2.30;;;14.40;95.90;;;;;;5089513;28;20016;-73
2023/10/16 13:33:38;;;;;;;4.40;2.97;;;14.40;95.00;;;;;;5088818;28;20706;-73
2023/10/16 13:36:11;;;;;;;5.32;2.90;;;14.60;95.10;;;;;;5089313;28;20071;-73
2023/10/16 13:38:37;;;;;;;;;;;14.30;94.20;;;;;;5088786;28;20776;-73
2023/10/16 13:41:17;;;;;;;5.40;2.78;;;13.70;94.80;;;;;;5089065;28;19918;-74
2023/10/16 13:43:42;;;;;;;8.52;3.08;;;13.90;95.20;;;;;;5088669;28;20050;-72
2023/10/16 13:46:08;;;;;;;5.05;3.05;;;13.70;94.10;;;;;;5089199;28;20442;-73
2023/10/16 13:48:34;;;;;;;3.80;2.60;;;13.70;95.50;;;;;;5088351;28;20047;-73
2023/10/16 13:50:59;;;;;;;5.95;2.85;;;13.70;94.80;;;;;;5089375;28;20475;-74
2023/10/16 13:53:25;;;;;;;4.28;2.53;;;14.00;94.70;;;;;;5088230;28;20123;-73
2023/10/16 13:55:54;;;;;;;4.03;2.40;;;14.10;94.50;;;;;;5087559;28;20060;-73
2023/10/16 13:58:20;;;;;;;7.00;2.80;;;14.00;93.90;;;;;;5088983;28;20134;-73
2023/10/16 14:00:47;;;;;;;6.53;2.92;;;14.20;94.20;;;;;;5087916;28;20071;-73
2023/10/16 14:05:44;;;;;;;9.10;3.70;;;13.60;94.10;;;;;;5087945;28;20039;-73
2023/10/16 14:08:10;;;;;;;9.02;3.15;;;13.50;95.40;;;;;;5088891;28;20062;-74
2023/10/16 14:10:39;;;;;;;5.70;3.05;;;13.80;95.00;;;;;;5088124;28;20043;-74
2023/10/16 14:13:11;;;;;;;4.35;2.78;;;13.90;94.50;;;;;;5088333;28;20530;-74
2023/10/16 14:15:41;;;;;;;4.88;3.00;;;13.90;94.80;;;;;;5088205;28;20110;-74
2023/10/16 14:18:14;;;;;;;3.40;2.50;;;13.90;93.60;;;;;;5087747;28;20048;-73
2023/10/16 14:20:45;;;;;;;5.35;2.90;;;13.70;93.40;;;;;;5087789;28;20043;-72
2023/10/16 14:23:12;;;;;;;6.60;3.60;;;13.60;93.70;;;;;;5088341;28;20031;-73
2023/10/16 14:25:45;;;;;;;7.72;2.97;;;13.50;95.60;;;;;;5088062;28;20069;-74
2023/10/16 14:28:28;;;;;;;7.68;3.00;;;13.50;94.00;;;;;;5087736;28;20036;-73
2023/10/16 14:30:59;;;;;;;5.53;2.80;;;13.00;94.30;;;;;;5087093;28;20756;-73
2023/10/16 14:33:30;;;;;;;4.43;2.50;;;12.60;94.20;;;;;;5086763;28;20028;-72
2023/10/16 14:36:02;;;;;;;6.05;3.10;;;12.70;94.70;;;;;;5087539;28;20152;-72
2023/10/16 14:38:28;;;;;;;5.85;3.05;;;12.70;94.40;;;;;;5086935;28;20040;-78
2023/10/16 14:41:06;;;;;;;6.72;3.13;;;12.50;94.50;;;;;;5088357;28;20036;-81
2023/10/16 14:43:34;;;;;;;5.28;2.65;;;12.60;94.90;;;;;;5084984;28;20024;-79
2023/10/16 14:46:04;;;;;;;5.90;2.60;;;12.60;94.50;;;;;;5079077;28;20016;-79
2023/10/16 14:48:29;;;;;;;4.93;2.53;;;12.90;94.70;;;;;;5085832;28;20035;-80
2023/10/16 14:50:55;;;;;;;4.35;2.78;;;12.80;93.90;;;;;;5087669;28;20369;-79
2023/10/16 14:53:25;;;;;;;4.95;2.80;;;12.70;94.20;;;;;;5084135;28;20031;-78
2023/10/16 14:55:50;;;;;;;5.72;2.72;;;12.40;94.40;;;;;;5085731;28;20024;-78
2023/10/16 14:58:18;;;;;;;8.27;3.78;;;12.50;95.80;;;;;;5086188;28;20531;-81
2023/10/16 15:00:45;;;;;;;6.93;3.05;;;12.40;96.30;;;;;;5076732;28;20066;-81
2023/10/16 15:03:13;;;;;;;5.30;3.05;;;12.30;96.50;;;;;;5089256;28;20093;-80
2023/10/16 15:05:43;;;;;;;6.07;3.00;;;12.40;96.90;;;;;;5084027;28;20035;-80
2023/10/16 15:08:13;;;;;;;8.15;3.72;;;12.40;96.90;;;;;;5087273;28;20085;-80
2023/10/16 15:10:43;;;;;;;8.60;3.17;;;12.60;96.80;;;;;;5083244;28;20032;-80